Time;durP1;ratioP1;P1;durP2;ratioP2;P2;SDS_P1;SDS_P2;PMS_P1;PMS_P2;Temp;Humidity;BMP_temperature;BMP_pressure;BME280_temperature;BME280_humidity;BME280_pressure;Samples;Min_cycle;Max_cycle;Signal;HPM_P1;HPM_P2
2023/01/15 00:02:47;;;;;;;;;;;16.80;71.00;;;;;;10417474;28;94893;-63
2023/01/15 00:07:51;;;;;;;;;;;16.80;70.80;;;;;;10417935;27;93827;-63
2023/01/15 00:12:52;;;;;;;;;;;16.80;70.80;;;;;;10417644;28;94591;-64
2023/01/15 00:17:54;;;;;;;;;;;16.80;70.70;;;;;;10417574;28;94563;-63
2023/01/15 00:22:56;;;;;;;;;;;16.70;70.50;;;;;;10415889;28;92533;-63
2023/01/15 00:27:58;;;;;;;;;;;16.70;70.40;;;;;;10417675;28;94408;-64
2023/01/15 00:33:02;;;;;;;;;;;16.70;70.50;;;;;;10418231;27;94789;-64
2023/01/15 00:38:04;;;;;;;;;;;16.70;70.30;;;;;;10413876;27;95659;-63
2023/01/15 00:43:06;;;;;;;;;;;16.70;70.10;;;;;;10416700;27;93836;-64
2023/01/15 00:48:08;;;;;;;;;;;16.60;70.20;;;;;;10416119;27;93804;-64
2023/01/15 00:53:09;;;;;;;;;;;16.60;70.20;;;;;;10416234;27;93544;-63
2023/01/15 00:58:11;;;;;;;;;;;16.60;70.20;;;;;;10415607;27;93390;-64
2023/01/15 01:03:13;;;;;;;;;;;16.60;70.20;;;;;;10415570;27;93453;-63
2023/01/15 01:08:15;;;;;;;;;;;16.60;70.00;;;;;;10414262;27;94610;-64
2023/01/15 01:13:16;;;;;;;;;;;16.60;69.90;;;;;;10415478;27;93822;-63
2023/01/15 01:18:18;;;;;;;;;;;16.60;69.90;;;;;;10416393;28;94428;-63
2023/01/15 01:23:21;;;;;;;;;;;16.50;69.80;;;;;;10413674;28;93062;-64
2023/01/15 01:28:23;;;;;;;;;;;16.50;69.70;;;;;;10412797;27;95870;-64
2023/01/15 01:33:25;;;;;;;;;;;16.50;69.60;;;;;;10414509;28;93866;-63
2023/01/15 01:38:27;;;;;;;;;;;16.50;69.50;;;;;;10414353;27;93262;-63
2023/01/15 01:43:29;;;;;;;;;;;16.50;69.50;;;;;;10415238;27;93861;-63
2023/01/15 01:48:33;;;;;;;;;;;16.50;69.40;;;;;;10414098;27;94540;-63
2023/01/15 01:53:34;;;;;;;;;;;16.50;69.30;;;;;;10414967;27;92680;-63
2023/01/15 01:58:36;;;;;;;;;;;16.50;69.20;;;;;;10413761;27;93229;-63
2023/01/15 02:03:38;;;;;;;;;;;16.50;69.10;;;;;;10796630;22;93297;-62
2023/01/15 02:08:40;;;;;;;;;;;16.50;69.00;;;;;;10329715;28;93212;-62
2023/01/15 02:13:51;;;;;;;;;;;16.50;68.90;;;;;;10331697;28;93487;-62
2023/01/15 02:19:07;;;;;;;;;;;16.40;68.80;;;;;;10328109;28;95825;-62
2023/01/15 02:24:12;;;;;;;;;;;16.40;68.80;;;;;;10331762;28;94422;-62
2023/01/15 02:29:17;;;;;;;;;;;16.40;68.80;;;;;;10330401;28;95083;-62
2023/01/15 02:34:26;;;;;;;;;;;16.40;68.60;;;;;;10329375;28;93261;-62
2023/01/15 02:39:28;;;;;;;;;;;16.40;68.60;;;;;;10329664;28;94418;-62
2023/01/15 02:44:31;;;;;;;;;;;16.40;68.50;;;;;;10330508;28;94323;-62
2023/01/15 02:49:33;;;;;;;;;;;16.40;68.60;;;;;;10327641;28;93759;-62
2023/01/15 02:54:40;;;;;;;;;;;16.30;68.50;;;;;;10327896;28;93686;-62
2023/01/15 02:59:44;;;;;;;;;;;16.30;68.30;;;;;;10329270;28;93261;-62
2023/01/15 03:04:48;;;;;;;;;;;16.30;68.30;;;;;;10326995;28;93227;-63
2023/01/15 03:09:51;;;;;;;;;;;16.30;68.40;;;;;;10326185;28;96720;-62
2023/01/15 03:14:58;;;;;;;;;;;16.30;68.40;;;;;;10329054;28;94092;-62
2023/01/15 03:20:10;;;;;;;;;;;16.30;68.20;;;;;;10328726;28;92441;-62
2023/01/15 03:25:17;;;;;;;;;;;16.20;68.20;;;;;;10329004;28;94565;-62
2023/01/15 03:30:20;;;;;;;;;;;16.30;68.20;;;;;;10330862;28;93945;-62
2023/01/15 03:35:41;;;;;;;;;;;16.20;68.10;;;;;;10334461;28;92597;-62
2023/01/15 03:40:49;;;;;;;;;;;16.20;68.00;;;;;;10336582;28;94469;-62
2023/01/15 03:45:54;;;;;;;;;;;16.20;68.00;;;;;;10335052;28;93750;-62
2023/01/15 03:51:00;;;;;;;;;;;16.20;67.90;;;;;;10334775;28;92943;-62
2023/01/15 03:56:18;;;;;;;;;;;16.20;67.90;;;;;;10335212;28;93509;-62
2023/01/15 04:01:24;;;;;;;;;;;16.20;67.90;;;;;;10331176;28;95842;-62
2023/01/15 04:06:27;;;;;;;;;;;16.20;68.00;;;;;;10334783;28;93198;-62
2023/01/15 04:11:29;;;;;;;;;;;16.20;67.80;;;;;;10335035;28;93514;-62
2023/01/15 04:16:31;;;;;;;;;;;16.20;67.80;;;;;;10333265;28;94089;-62
2023/01/15 04:21:33;;;;;;;;;;;16.20;67.70;;;;;;10333317;28;93383;-62
2023/01/15 04:26:34;;;;;;;;;;;16.20;67.60;;;;;;10335468;28;93111;-62
2023/01/15 04:31:36;;;;;;;;;;;16.20;67.60;;;;;;10334898;28;94449;-62
2023/01/15 04:36:38;;;;;;;;;;;16.20;67.50;;;;;;10335018;28;92146;-62
2023/01/15 06:04:16;;;;;;;;;;;16.30;67.90;;;;;;10294061;28;94002;-62
2023/01/15 06:09:18;;;;;;;;;;;16.50;67.60;;;;;;10331895;28;93564;-62
2023/01/15 06:14:20;;;;;;;;;;;16.70;67.70;;;;;;10328582;28;93548;-62
2023/01/15 06:19:22;;;;;;;;;;;16.80;67.60;;;;;;10330876;28;94521;-62
2023/01/15 06:24:23;;;;;;;;;;;16.90;67.50;;;;;;10330096;28;94223;-62
2023/01/15 06:29:25;;;;;;;;;;;17.00;67.50;;;;;;10329674;28;93478;-62
2023/01/15 06:34:27;;;;;;;;;;;17.00;67.40;;;;;;10330897;28;92604;-62
2023/01/15 06:39:29;;;;;;;;;;;17.10;67.30;;;;;;10330047;28;94445;-62
2023/01/15 06:49:52;;;;;;;;;;;17.10;67.00;;;;;;10327432;28;96089;-62
2023/01/15 06:54:54;;;;;;;;;;;17.20;67.10;;;;;;10327676;28;93441;-62
2023/01/15 06:59:56;;;;;;;;;;;17.10;66.90;;;;;;10329245;28;93618;-63
2023/01/15 07:04:57;;;;;;;;;;;17.10;66.80;;;;;;10327344;28;94114;-62
2023/01/15 07:09:59;;;;;;;;;;;17.20;66.80;;;;;;10329814;28;93470;-62
2023/01/15 07:15:01;;;;;;;;;;;17.20;66.70;;;;;;10329070;28;92870;-63
2023/01/15 07:20:03;;;;;;;;;;;17.30;66.60;;;;;;10329521;28;93486;-63
2023/01/15 07:25:06;;;;;;;;;;;17.30;66.40;;;;;;10327945;28;92852;-63
2023/01/15 07:30:07;;;;;;;;;;;17.40;66.20;;;;;;10327977;28;93436;-62
2023/01/15 07:35:09;;;;;;;;;;;17.30;66.20;;;;;;10328625;28;93584;-62
2023/01/15 07:40:11;;;;;;;;;;;17.40;66.10;;;;;;10325299;28;95826;-63
2023/01/15 07:50:33;;;;;;;;;;;17.40;65.90;;;;;;10327561;28;94458;-63
2023/01/15 07:55:35;;;;;;;;;;;17.40;65.80;;;;;;10328210;28;93521;-62
2023/01/15 08:00:36;;;;;;;;;;;17.40;65.70;;;;;;10327989;28;93123;-63
2023/01/15 08:05:38;;;;;;;;;;;17.30;65.70;;;;;;10325788;28;94765;-64
2023/01/15 08:15:11;;;;;;;;;;;17.30;65.60;;;;;;10328374;28;93488;-62
2023/01/15 08:16:01;;;;;;;;;;;17.20;65.40;;;;;;10329544;28;92464;-63
2023/01/15 08:21:03;;;;;;;;;;;17.20;66.60;;;;;;10332799;28;93983;-62
2023/01/15 08:26:05;;;;;;;;;;;17.10;67.00;;;;;;10334006;28;93486;-62
2023/01/15 08:31:07;;;;;;;;;;;17.10;67.60;;;;;;10332481;28;95899;-62
2023/01/15 08:36:09;;;;;;;;;;;17.10;67.30;;;;;;10334002;28;93535;-62
2023/01/15 08:41:10;;;;;;;;;;;17.00;67.00;;;;;;10334184;28;94425;-61
2023/01/15 08:46:12;;;;;;;;;;;17.00;66.80;;;;;;10334339;28;94558;-62
2023/01/15 08:51:14;;;;;;;;;;;16.90;66.60;;;;;;10333669;28;93494;-62
2023/01/15 08:56:17;;;;;;;;;;;16.90;66.40;;;;;;10334300;28;93478;-61
2023/01/15 09:01:19;;;;;;;;;;;16.80;66.30;;;;;;10333283;28;94030;-60
2023/01/15 09:06:21;;;;;;;;;;;16.80;66.30;;;;;;10331906;28;92624;-62
2023/01/15 09:11:23;;;;;;;;;;;16.70;66.10;;;;;;10333514;28;94592;-60
2023/01/15 09:16:30;;;;;;;;;;;16.70;66.00;;;;;;10332992;28;93475;-61
2023/01/15 09:21:32;;;;;;;;;;;16.60;66.00;;;;;;10328864;28;95971;-61
2023/01/15 09:26:35;;;;;;;;;;;16.60;65.90;;;;;;10331774;28;93498;-61
2023/01/15 09:31:37;;;;;;;;;;;16.60;65.80;;;;;;10332007;28;93931;-61
2023/01/15 09:36:39;;;;;;;;;;;16.50;65.80;;;;;;10332231;28;92565;-61
2023/01/15 09:47:08;;;;;;;;;;;16.60;65.70;;;;;;10331803;28;94314;-61
2023/01/15 09:52:15;;;;;;;;;;;16.60;65.50;;;;;;10331560;28;93407;-61
2023/01/15 09:57:18;;;;;;;;;;;16.60;65.30;;;;;;10332704;28;92562;-61
2023/01/15 10:02:24;;;;;;;;;;;16.60;65.00;;;;;;10329902;28;93256;-61
2023/01/15 10:07:35;;;;;;;;;;;16.60;65.00;;;;;;10331924;28;94602;-61
2023/01/15 10:12:38;;;;;;;;;;;16.60;65.00;;;;;;10329129;28;96313;-61
2023/01/15 10:17:42;;;;;;;;;;;16.60;65.10;;;;;;10330060;28;93535;-61
2023/01/15 10:23:01;;;;;;;;;;;16.60;65.10;;;;;;10329567;28;94329;-61
2023/01/15 10:28:12;;;;;;;;;;;16.50;64.80;;;;;;10330767;28;93474;-61
2023/01/15 10:33:30;;;;;;;;;;;16.50;64.80;;;;;;10331605;28;93058;-61
2023/01/15 10:38:45;;;;;;;;;;;16.50;64.70;;;;;;10329676;28;94506;-61
2023/01/15 10:43:53;;;;;;;;;;;16.40;64.70;;;;;;10331174;28;94051;-61
2023/01/15 10:48:56;;;;;;;;;;;16.50;64.70;;;;;;10331292;28;92733;-61
2023/01/15 10:53:58;;;;;;;;;;;16.50;64.50;;;;;;10330181;28;93703;-61
2023/01/15 10:59:07;;;;;;;;;;;16.60;64.40;;;;;;10328325;28;94100;-61
2023/01/15 11:04:12;;;;;;;;;;;16.80;64.20;;;;;;10327065;28;96902;-61
2023/01/15 11:09:22;;;;;;;;;;;16.90;63.80;;;;;;10329764;28;92673;-61
2023/01/15 11:19:58;;;;;;;;;;;17.10;64.10;;;;;;10329694;28;92564;-61
2023/01/15 11:25:00;;;;;;;;;;;17.20;63.90;;;;;;10329372;28;93449;-61
2023/01/15 11:30:03;;;;;;;;;;;17.20;64.20;;;;;;10329365;28;94687;-61
2023/01/15 11:35:15;;;;;;;;;;;17.30;66.00;;;;;;10328775;28;92462;-62
2023/01/15 11:40:18;;;;;;;;;;;17.50;67.60;;;;;;10327622;28;93834;-62
2023/01/15 11:50:47;;;;;;;;;;;17.70;64.80;;;;;;10329292;28;94467;-62
2023/01/15 11:55:51;;;;;;;;;;;17.60;64.50;;;;;;10333110;28;97147;-62
2023/01/15 12:00:55;;;;;;;;;;;17.60;64.60;;;;;;10369881;28;93625;-63
2023/01/15 12:05:58;;;;;;;;;;;17.50;64.20;;;;;;10376202;28;94416;-62
2023/01/15 12:11:16;;;;;;;;;;;17.30;63.90;;;;;;10373713;28;93516;-63
2023/01/15 12:16:31;;;;;;;;;;;17.30;63.70;;;;;;10376468;28;94544;-62
2023/01/15 12:21:45;;;;;;;;;;;17.20;63.60;;;;;;10376286;28;93426;-62
2023/01/15 12:27:09;;;;;;;;;;;17.10;63.50;;;;;;10375331;28;93534;-62
2023/01/15 12:32:17;;;;;;;;;;;17.10;63.60;;;;;;10375792;28;93294;-62
2023/01/15 12:37:35;;;;;;;;;;;17.00;63.70;;;;;;10374853;28;94139;-62
2023/01/15 12:48:11;;;;;;;;;;;17.00;63.80;;;;;;10372696;28;96930;-61
2023/01/15 12:53:13;;;;;;;;;;;16.90;64.10;;;;;;10372500;28;93931;-62
2023/01/15 12:58:20;;;;;;;;;;;16.90;64.10;;;;;;10372755;28;94418;-61
2023/01/15 13:03:31;;;;;;;;;;;16.90;64.10;;;;;;10372793;28;93243;-63
2023/01/15 13:08:43;;;;;;;;;;;16.90;64.10;;;;;;10375119;28;94341;-62
2023/01/15 13:13:56;;;;;;;;;;;16.90;64.10;;;;;;10356194;28;93507;-64
2023/01/15 13:18:58;;;;;;;;;;;16.90;64.10;;;;;;10374872;28;94144;-62
2023/01/15 13:24:12;;;;;;;;;;;16.80;64.00;;;;;;10374744;28;92279;-62
2023/01/15 13:29:20;;;;;;;;;;;16.90;63.90;;;;;;10372814;28;93682;-62
2023/01/15 13:34:28;;;;;;;;;;;16.90;64.90;;;;;;10372026;28;93622;-63
2023/01/15 13:39:36;;;;;;;;;;;16.90;63.80;;;;;;10369054;28;95823;-63
2023/01/15 13:44:44;;;;;;;;;;;16.90;64.10;;;;;;10371013;28;94779;-62
2023/01/15 13:49:50;;;;;;;;;;;16.90;64.00;;;;;;10373275;28;93083;-62
2023/01/15 13:54:54;;;;;;;;;;;16.90;63.70;;;;;;10371963;28;93484;-62
2023/01/15 13:59:55;;;;;;;;;;;16.90;64.70;;;;;;10372796;28;92831;-62
2023/01/15 14:04:57;;;;;;;;;;;16.90;63.50;;;;;;10372308;28;94456;-62
2023/01/15 14:10:08;;;;;;;;;;;16.90;63.40;;;;;;10369408;28;92954;-61
2023/01/15 14:15:28;;;;;;;;;;;16.90;63.30;;;;;;10372150;28;93756;-62
2023/01/15 14:20:36;;;;;;;;;;;16.80;63.00;;;;;;10371411;28;94997;-61
2023/01/15 14:25:49;;;;;;;;;;;16.80;63.20;;;;;;10371151;28;93631;-62
2023/01/15 14:30:55;;;;;;;;;;;16.70;63.10;;;;;;10350203;28;95973;-62
2023/01/15 14:36:07;;;;;;;;;;;16.80;63.10;;;;;;10369976;28;92905;-62
2023/01/15 14:41:11;;;;;;;;;;;16.80;63.00;;;;;;10370899;28;94334;-62
2023/01/15 14:46:32;;;;;;;;;;;16.80;63.00;;;;;;10370461;28;94579;-62
2023/01/15 14:51:45;;;;;;;;;;;16.70;63.00;;;;;;10370777;28;93080;-62
2023/01/15 14:56:52;;;;;;;;;;;16.70;63.00;;;;;;10371333;28;93326;-62
2023/01/15 15:01:55;;;;;;;;;;;16.70;63.10;;;;;;10369470;28;93552;-61
2023/01/15 15:07:00;;;;;;;;;;;16.80;63.60;;;;;;10371049;28;93734;-61
2023/01/15 15:12:24;;;;;;;;;;;16.80;64.20;;;;;;10370794;28;94293;-61
2023/01/15 15:17:32;;;;;;;;;;;16.80;65.50;;;;;;10369872;28;93490;-61
2023/01/15 15:22:35;;;;;;;;;;;16.80;65.50;;;;;;10366880;28;95862;-60
2023/01/15 15:27:39;;;;;;;;;;;16.80;65.40;;;;;;10374123;28;93222;-60
2023/01/15 15:32:42;;;;;;;;;;;16.90;65.40;;;;;;10375574;28;93242;-60
2023/01/15 15:37:45;;;;;;;;;;;16.90;65.40;;;;;;10377384;28;93494;-60
2023/01/15 15:48:42;;;;;;;;;;;16.80;64.60;;;;;;10375470;28;92484;-61
2023/01/15 15:53:44;;;;;;;;;;;16.90;64.40;;;;;;10377483;28;93210;-61
2023/01/15 15:58:45;;;;;;;;;;;16.90;64.20;;;;;;10374865;28;92712;-60
2023/01/15 16:03:47;;;;;;;;;;;16.90;64.20;;;;;;10374823;28;93259;-60
2023/01/15 16:08:54;;;;;;;;;;;16.90;64.00;;;;;;10375445;28;94677;-60
2023/01/15 16:13:56;;;;;;;;;;;16.90;63.90;;;;;;10372702;28;95722;-61
2023/01/15 16:18:58;;;;;;;;;;;17.00;63.90;;;;;;10374756;28;94446;-60
2023/01/15 16:24:01;;;;;;;;;;;17.20;63.80;;;;;;10368711;28;93798;-61
2023/01/15 16:29:04;;;;;;;;;;;17.40;63.40;;;;;;10374929;28;94420;-61
2023/01/15 16:34:15;;;;;;;;;;;17.70;63.10;;;;;;10374134;28;92734;-62
2023/01/15 16:39:23;;;;;;;;;;;17.90;62.50;;;;;;10373849;28;93387;-61
2023/01/15 16:44:33;;;;;;;;;;;18.00;62.10;;;;;;10374404;28;93452;-60
2023/01/15 16:49:35;;;;;;;;;;;18.00;61.90;;;;;;10375767;28;93584;-60
2023/01/15 16:54:37;;;;;;;;;;;17.90;61.80;;;;;;10373526;28;93449;-62
2023/01/15 16:59:45;;;;;;;;;;;17.90;62.00;;;;;;10371784;28;93877;-63
2023/01/15 17:04:47;;;;;;;;;;;17.90;62.00;;;;;;10366755;28;96904;-63
2023/01/15 17:09:49;;;;;;;;;;;18.00;62.40;;;;;;10372702;28;93668;-62
2023/01/15 17:14:52;;;;;;;;;;;18.20;62.40;;;;;;10370459;28;94157;-60
2023/01/15 17:19:54;;;;;;;;;;;18.30;62.30;;;;;;10371771;28;93353;-61
2023/01/15 17:24:57;;;;;;;;;;;18.40;63.90;;;;;;10370622;28;94439;-60
2023/01/15 17:29:59;;;;;;;;;;;18.40;64.80;;;;;;10371936;28;93620;-60
2023/01/15 17:35:00;;;;;;;;;;;18.30;66.20;;;;;;10369326;28;94474;-61
2023/01/15 17:40:02;;;;;;;;;;;18.20;66.30;;;;;;10372031;28;92843;-62
2023/01/15 17:45:04;;;;;;;;;;;18.30;67.20;;;;;;10371597;28;93489;-62
2023/01/15 17:50:06;;;;;;;;;;;18.40;66.60;;;;;;10369886;28;93221;-62
2023/01/15 18:06:00;;;;;;;;;;;18.40;63.60;;;;;;10351813;28;93472;-62
2023/01/15 18:11:02;;;;;;;;;;;18.20;63.80;;;;;;10370249;28;93186;-61
2023/01/15 18:16:04;;;;;;;;;;;18.10;64.00;;;;;;10370382;28;93282;-62
2023/01/15 18:21:06;;;;;;;;;;;18.20;64.20;;;;;;10370149;28;93611;-61
2023/01/15 18:26:08;;;;;;;;;;;18.20;64.20;;;;;;10370418;28;93733;-61
2023/01/15 18:31:10;;;;;;;;;;;18.30;64.10;;;;;;10371509;28;93757;-62
2023/01/15 18:36:13;;;;;;;;;;;18.40;63.80;;;;;;10370389;28;93590;-61
2023/01/15 18:46:45;;;;;;;;;;;18.50;63.30;;;;;;10367678;28;96019;-62
2023/01/15 18:52:47;;;;;;;;;;;18.40;63.30;;;;;;10369853;28;94580;-61
2023/01/15 18:57:09;;;;;;;;;;;18.30;63.50;;;;;;10369935;28;94638;-62
2023/01/15 19:02:13;;;;;;;;;;;18.20;63.50;;;;;;10368524;28;94074;-61
2023/01/15 19:07:16;;;;;;;;;;;18.10;64.10;;;;;;10368171;28;94480;-61
2023/01/15 19:12:18;;;;;;;;;;;18.00;64.10;;;;;;10368574;28;93912;-62
2023/01/15 19:22:57;;;;;;;;;;;17.90;65.00;;;;;;10370927;28;92534;-61
2023/01/15 19:27:59;;;;;;;;;;;17.80;64.90;;;;;;10370458;28;93355;-61
2023/01/15 19:33:00;;;;;;;;;;;17.80;64.90;;;;;;10368545;28;93838;-61
2023/01/15 19:38:06;;;;;;;;;;;17.90;64.90;;;;;;10366583;28;96930;-61
2023/01/15 19:53:49;;;;;;;;;;;18.20;64.40;;;;;;10368322;28;94217;-61
2023/01/15 19:58:51;;;;;;;;;;;18.30;64.30;;;;;;10351443;28;94668;-62
2023/01/15 20:03:53;;;;;;;;;;;18.40;64.20;;;;;;10368056;28;93213;-61
2023/01/15 20:08:54;;;;;;;;;;;18.50;63.90;;;;;;10369477;28;93366;-61
2023/01/15 20:13:56;;;;;;;;;;;18.50;63.90;;;;;;10374160;28;93874;-61
2023/01/15 20:18:58;;;;;;;;;;;18.50;63.70;;;;;;10375373;28;93469;-61
2023/01/15 20:24:00;;;;;;;;;;;18.40;63.70;;;;;;10375314;28;93406;-62
2023/01/15 20:29:02;;;;;;;;;;;18.30;63.70;;;;;;10371358;28;96959;-61
2023/01/15 20:34:03;;;;;;;;;;;18.20;63.80;;;;;;10374950;28;93164;-61
2023/01/15 20:39:05;;;;;;;;;;;18.10;63.90;;;;;;10374894;28;93409;-61
2023/01/15 20:49:31;;;;;;;;;;;18.10;64.00;;;;;;10375458;28;93816;-62
2023/01/15 20:54:32;;;;;;;;;;;18.10;64.10;;;;;;10375429;28;94082;-61
2023/01/15 20:59:34;;;;;;;;;;;18.00;64.10;;;;;;10374898;28;94424;-61
2023/01/15 21:04:36;;;;;;;;;;;18.00;64.00;;;;;;10372900;28;93722;-61
2023/01/15 21:09:38;;;;;;;;;;;18.00;64.10;;;;;;10374881;28;94402;-61
2023/01/15 21:14:40;;;;;;;;;;;17.90;64.00;;;;;;10372359;28;94251;-61
2023/01/15 21:19:42;;;;;;;;;;;17.90;64.10;;;;;;10369541;28;95894;-61
2023/01/15 21:24:45;;;;;;;;;;;17.90;64.20;;;;;;10372789;28;95637;-62
2023/01/15 21:29:47;;;;;;;;;;;17.80;64.10;;;;;;10373365;28;93504;-62
2023/01/15 21:34:49;;;;;;;;;;;17.80;64.30;;;;;;10374478;28;93651;-61
2023/01/15 21:39:51;;;;;;;;;;;17.70;64.30;;;;;;10371670;28;92515;-61
2023/01/15 21:44:53;;;;;;;;;;;17.70;64.30;;;;;;10373330;28;94450;-62
2023/01/15 21:49:55;;;;;;;;;;;17.60;64.40;;;;;;10374070;28;93439;-61
2023/01/15 21:54:56;;;;;;;;;;;17.60;64.40;;;;;;10374525;28;93735;-61
2023/01/15 21:59:58;;;;;;;;;;;17.50;64.50;;;;;;10372577;28;94436;-61
2023/01/15 22:05:00;;;;;;;;;;;17.50;64.60;;;;;;10372231;28;93398;-61
2023/01/15 22:10:04;;;;;;;;;;;17.40;64.60;;;;;;10369065;28;115012;-61
2023/01/15 22:15:07;;;;;;;;;;;17.40;64.70;;;;;;10372987;28;94445;-61
2023/01/15 22:20:09;;;;;;;;;;;17.30;64.80;;;;;;10372403;28;94516;-61
2023/01/15 22:25:14;;;;;;;;;;;17.30;64.80;;;;;;10370090;28;92859;-61
2023/01/15 22:30:16;;;;;;;;;;;17.20;64.70;;;;;;10372952;28;94452;-61
2023/01/15 22:35:17;;;;;;;;;;;17.20;64.80;;;;;;10371848;28;92709;-61
2023/01/15 22:40:19;;;;;;;;;;;17.10;64.60;;;;;;10370385;28;93891;-61
2023/01/15 22:45:21;;;;;;;;;;;17.10;64.60;;;;;;10371606;28;91910;-61
2023/01/15 22:50:23;;;;;;;;;;;17.00;64.40;;;;;;10369299;28;94444;-61
2023/01/15 22:55:25;;;;;;;;;;;17.00;64.50;;;;;;10371040;28;94091;-61
2023/01/15 23:00:27;;;;;;;;;;;16.90;64.50;;;;;;10369579;28;97360;-61
2023/01/15 23:05:28;;;;;;;;;;;16.90;64.40;;;;;;10370002;28;93409;-61
2023/01/15 23:10:30;;;;;;;;;;;16.80;64.40;;;;;;10368606;28;93250;-61
2023/01/15 23:15:32;;;;;;;;;;;16.80;64.40;;;;;;10371055;28;93375;-61
2023/01/15 23:20:33;;;;;;;;;;;16.70;64.30;;;;;;10369938;28;93501;-61
2023/01/15 23:25:35;;;;;;;;;;;16.70;64.30;;;;;;10369941;28;93476;-61
2023/01/15 23:30:37;;;;;;;;;;;16.70;64.40;;;;;;10371024;28;94381;-61
2023/01/15 23:35:39;;;;;;;;;;;16.60;64.30;;;;;;10371493;28;93993;-61
2023/01/15 23:40:41;;;;;;;;;;;16.60;64.30;;;;;;10368840;28;93260;-61
2023/01/15 23:51:03;;;;;;;;;;;16.60;64.20;;;;;;10374823;28;96811;-61
2023/01/15 23:56:05;;;;;;;;;;;16.50;64.20;;;;;;10377655;28;94561;-61
